| time (UTC) | temp C | wind direction | speed KPH | gust KPH | rain 1hr cm | rain 24hr cm | rain mn cm | humidity % | barometer mb |
| 20260508100053 | 13 | 221 | 1.6 | 11.3 | 0.00 | 0.00 | 0.00 | 77 | 1010.4 |
| 20260508094558 | 12 | 221 | 3.2 | 11.3 | 0.00 | 0.00 | 0.00 | 78 | 1010.4 |
| 20260508093046 | 12 | 221 | 4.8 | 9.7 | 0.00 | 0.00 | 0.00 | 77 | 1010.4 |
| 20260508091556 | 11 | 221 | 1.6 | 8.0 | 0.00 | 0.00 | 0.00 | 78 | 1010.4 |
| 20260508090044 | 11 | 221 | 0.0 | 8.0 | 0.00 | 0.00 | 0.00 | 77 | 1010.4 |
| 20260508084541 | 11 | 221 | 4.8 | 9.7 | 0.00 | 0.00 | 0.00 | 76 | 1010.6 |
| 20260508083045 | 11 | 221 | 6.4 | 9.7 | 0.00 | 0.00 | 0.00 | 76 | 1010.6 |
| 20260508081544 | 10 | 221 | 3.2 | 8.0 | 0.00 | 0.00 | 0.00 | 76 | 1010.5 |
| 20260508080033 | 10 | 221 | 1.6 | 8.0 | 0.00 | 0.00 | 0.00 | 76 | 1010.5 |
| 20260508074531 | 10 | 221 | 1.6 | 6.4 | 0.00 | 0.00 | 0.00 | 76 | 1010.3 |
| 20260508073028 | 10 | 221 | 3.2 | 9.7 | 0.00 | 0.00 | 0.00 | 77 | 1010.3 |
| 20260508071525 | 10 | 221 | 3.2 | 8.0 | 0.00 | 0.00 | 0.00 | 77 | 1010.3 |
| 20260508070021 | 9 | 221 | 3.2 | 6.4 | 0.00 | 0.00 | 0.00 | 77 | 1010.3 |
| 20260508064526 | 9 | 221 | 4.8 | 6.4 | 0.00 | 0.00 | 0.00 | 77 | 1010.2 |
| 20260508063017 | 9 | 221 | 6.4 | 11.3 | 0.00 | 0.00 | 0.00 | 78 | 1010.2 |
| 20260508061515 | 8 | 221 | 0.0 | 4.8 | 0.00 | 0.00 | 0.00 | 77 | 1009.9 |
| 20260508060013 | 8 | 221 | 1.6 | 4.8 | 0.00 | 0.00 | 0.00 | 77 | 1010.0 |
| 20260508054513 | 8 | 221 | 0.0 | 8.0 | 0.00 | 0.00 | 0.00 | 77 | 1009.3 |
| 20260508053011 | 8 | 221 | 1.6 | 3.2 | 0.00 | 0.00 | 0.00 | 77 | 1009.2 |
| 20260508051520 | 8 | 221 | 0.0 | 0.0 | 0.00 | 0.00 | 0.00 | 77 | 1008.9 |
| 20260508050011 | 8 | 221 | 0.0 | 0.0 | 0.00 | 0.00 | 0.00 | 77 | 1008.9 |
| 20260508044510 | 8 | 221 | 1.6 | 4.8 | 0.00 | 0.00 | 0.00 | 76 | 1009.1 |
| 20260508043017 | 9 | 221 | 1.6 | 8.0 | 0.00 | 0.00 | 0.00 | 76 | 1009.3 |
| 20260508041509 | 9 | 221 | 0.0 | 0.0 | 0.00 | 0.00 | 0.00 | 76 | 1009.1 |
| 20260508040005 | 9 | 221 | 4.8 | 8.0 | 0.00 | 0.00 | 0.00 | 76 | 1009.4 |
| 20260508034504 | 9 | 221 | 0.0 | 1.6 | 0.00 | 0.00 | 0.00 | 76 | 1009.1 |
| 20260508033002 | 9 | 221 | 4.8 | 8.0 | 0.00 | 0.00 | 0.00 | 76 | 1009.2 |
| 20260508031604 | 9 | 221 | 0.0 | 4.8 | 0.00 | 0.00 | 0.00 | 76 | 1009.1 |
| 20260508030059 | 9 | 221 | 4.8 | 9.7 | 0.00 | 0.00 | 0.00 | 76 | 1009.1 |
| 20260508024604 | 9 | 221 | 3.2 | 6.4 | 0.00 | 0.00 | 0.00 | 76 | 1009.0 |
| 20260508023056 | 9 | 221 | 0.0 | 8.0 | 0.00 | 0.00 | 0.00 | 76 | 1009.4 |
| 20260508021551 | 9 | 221 | 0.0 | 1.6 | 0.00 | 0.00 | 0.00 | 76 | 1009.6 |
| 20260508020049 | 9 | 221 | 3.2 | 8.0 | 0.00 | 0.00 | 0.00 | 76 | 1009.7 |
| 20260508014547 | 9 | 221 | 0.0 | 0.0 | 0.00 | 0.00 | 0.00 | 76 | 1010.2 |
| 20260508013044 | 9 | 221 | 0.0 | 1.6 | 0.00 | 0.00 | 0.00 | 76 | 1010.3 |
| 20260508011550 | 9 | 221 | 1.6 | 4.8 | 0.00 | 0.00 | 0.00 | 76 | 1010.4 |
| 20260508010041 | 8 | 221 | 0.0 | 3.2 | 0.00 | 0.00 | 0.00 | 76 | 1010.7 |
| 20260508004542 | 9 | 221 | 0.0 | 1.6 | 0.00 | 0.00 | 0.00 | 76 | 1010.9 |
| 20260508003040 | 8 | 221 | 0.0 | 0.0 | 0.00 | 0.00 | 0.00 | 77 | 1010.8 |
| 20260508001536 | 8 | 221 | 0.0 | 0.0 | 0.00 | 0.00 | 0.00 | 77 | 1010.8 |
| 20260508000034 | 9 | 221 | 0.0 | 0.0 | 0.00 | 0.00 | 0.00 | 77 | 1010.8 |
| 20260507234539 | 9 | 221 | 0.0 | 3.2 | 0.00 | 0.00 | 0.00 | 78 | 1010.9 |
| 20260507233033 | 10 | 221 | 0.0 | 0.0 | 0.00 | 0.00 | 0.00 | 77 | 1011.1 |
| 20260507231535 | 10 | 221 | 0.0 | 0.0 | 0.00 | 0.00 | 0.00 | 78 | 1011.2 |
| 20260507230032 | 10 | 221 | 0.0 | 0.0 | 0.00 | 0.00 | 0.00 | 77 | 1011.1 |
| 20260507224534 | 10 | 221 | 0.0 | 3.2 | 0.00 | 0.00 | 0.00 | 77 | 1011.2 |
| 20260507223031 | 10 | 221 | 0.0 | 1.6 | 0.00 | 0.00 | 0.00 | 77 | 1011.2 |
| 20260507221531 | 10 | 221 | 0.0 | 3.2 | 0.00 | 0.00 | 0.00 | 76 | 1011.4 |
| 20260507220031 | 10 | 221 | 0.0 | 3.2 | 0.00 | 0.00 | 0.00 | 75 | 1011.5 |
| 20260507214530 | 11 | 221 | 0.0 | 0.0 | 0.00 | 0.00 | 0.00 | 73 | 1011.7 |
| 20260507213031 | 12 | 221 | 0.0 | 3.2 | 0.00 | 0.00 | 0.00 | 70 | 1011.7 |
| 20260507211530 | 12 | 221 | 4.8 | 11.3 | 0.00 | 0.00 | 0.00 | 70 | 1011.9 |
| 20260507210030 | 12 | 221 | 8.0 | 14.5 | 0.00 | 0.00 | 0.00 | 70 | 1011.9 |
| 20260507204528 | 12 | 221 | 12.9 | 17.7 | 0.00 | 0.00 | 0.00 | 70 | 1011.8 |
| 20260507203030 | 12 | 221 | 9.7 | 17.7 | 0.00 | 0.00 | 0.00 | 73 | 1011.7 |
| 20260507201527 | 13 | 221 | 9.7 | 16.1 | 0.00 | 0.00 | 0.00 | 72 | 1011.5 |
| 20260507200026 | 13 | 221 | 11.3 | 17.7 | 0.00 | 0.00 | 0.00 | 73 | 1011.1 |
| 20260507194530 | 13 | 230 | 9.7 | 16.1 | 0.00 | 0.00 | 0.00 | 72 | 1010.9 |
| 20260507193026 | 13 | 230 | 9.7 | 16.1 | 0.00 | 0.00 | 0.00 | 71 | 1010.6 |
| 20260507191525 | 13 | 230 | 9.7 | 17.7 | 0.00 | 0.00 | 0.00 | 70 | 1010.4 |
| 20260507190024 | 14 | 237 | 9.7 | 17.7 | 0.00 | 0.00 | 0.00 | 69 | 1010.2 |
| 20260507184524 | 15 | 241 | 12.9 | 17.7 | 0.00 | 0.00 | 0.00 | 69 | 1010.0 |
| 20260507183025 | 15 | 240 | 11.3 | 19.3 | 0.00 | 0.00 | 0.00 | 68 | 1009.9 |
| 20260507181522 | 15 | 240 | 8.0 | 17.7 | 0.00 | 0.00 | 0.00 | 67 | 1009.7 |
| 20260507180026 | 16 | 237 | 9.7 | 16.1 | 0.00 | 0.00 | 0.00 | 66 | 1009.6 |
| 20260507174522 | 16 | 238 | 12.9 | 17.7 | 0.00 | 0.00 | 0.00 | 64 | 1009.7 |
| 20260507173031 | 16 | 233 | 9.7 | 16.1 | 0.00 | 0.00 | 0.00 | 64 | 1009.5 |
| 20260507171521 | 16 | 233 | 9.7 | 16.1 | 0.00 | 0.00 | 0.00 | 65 | 1009.4 |
| 20260507170020 | 16 | 233 | 8.0 | 16.1 | 0.00 | 0.00 | 0.00 | 66 | 1009.6 |
| 20260507164521 | 16 | 233 | 11.3 | 24.1 | 0.00 | 0.00 | 0.00 | 66 | 1009.4 |
| 20260507163019 | 17 | 260 | 12.9 | 19.3 | 0.00 | 0.00 | 0.00 | 63 | 1009.2 |
| 20260507161523 | 17 | 251 | 11.3 | 20.9 | 0.00 | 0.00 | 0.00 | 64 | 1009.2 |
| 20260507160022 | 17 | 247 | 14.5 | 22.5 | 0.00 | 0.00 | 0.00 | 60 | 1009.3 |
| 20260507154520 | 17 | 248 | 14.5 | 20.9 | 0.00 | 0.00 | 0.00 | 61 | 1009.3 |
| 20260507153018 | 18 | 244 | 12.9 | 20.9 | 0.00 | 0.00 | 0.00 | 57 | 1009.2 |
| 20260507151515 | 18 | 260 | 11.3 | 19.3 | 0.00 | 0.00 | 0.00 | 60 | 1009.2 |
| 20260507150014 | 17 | 241 | 11.3 | 20.9 | 0.00 | 0.00 | 0.00 | 63 | 1009.4 |
| 20260507144515 | 17 | 252 | 9.7 | 16.1 | 0.00 | 0.00 | 0.00 | 64 | 1009.7 |
| 20260507143011 | 16 | 252 | 9.7 | 17.7 | 0.00 | 0.00 | 0.00 | 64 | 1009.7 |
| 20260507141510 | 17 | 247 | 16.1 | 24.1 | 0.00 | 0.00 | 0.00 | 62 | 1009.8 |
| 20260507140008 | 17 | 236 | 8.0 | 22.5 | 0.00 | 0.00 | 0.00 | 64 | 1009.9 |
| 20260507134506 | 17 | 236 | 9.7 | 19.3 | 0.00 | 0.00 | 0.00 | 65 | 1009.9 |
| 20260507133004 | 17 | 236 | 9.7 | 17.7 | 0.00 | 0.00 | 0.00 | 65 | 1010.0 |
| 20260507131502 | 16 | 231 | 9.7 | 19.3 | 0.00 | 0.00 | 0.00 | 66 | 1010.2 |
| 20260507130002 | 16 | 242 | 9.7 | 19.3 | 0.00 | 0.00 | 0.00 | 66 | 1010.4 |
| 20260507124612 | 16 | 222 | 12.9 | 22.5 | 0.00 | 0.00 | 0.00 | 67 | 1010.5 |
| 20260507123056 | 16 | 242 | 9.7 | 25.7 | 0.00 | 0.00 | 0.00 | 69 | 1010.6 |
| 20260507121554 | 16 | 252 | 11.3 | 20.9 | 0.00 | 0.00 | 0.00 | 70 | 1010.8 |
| 20260507120053 | 15 | 261 | 9.7 | 17.7 | 0.00 | 0.00 | 0.00 | 72 | 1010.7 |
| 20260507114557 | 16 | 246 | 11.3 | 16.1 | 0.00 | 0.00 | 0.00 | 72 | 1011.0 |
| 20260507113048 | 15 | 244 | 4.8 | 14.5 | 0.00 | 0.00 | 0.00 | 74 | 1011.0 |
| 20260507111548 | 13 | 242 | 4.8 | 9.7 | 0.00 | 0.00 | 0.00 | 76 | 1011.1 |
| 20260507110044 | 13 | 242 | 6.4 | 12.9 | 0.00 | 0.00 | 0.00 | 76 | 1011.1 |
| 20260507104541 | 13 | 213 | 0.0 | 12.9 | 0.00 | 0.00 | 0.00 | 77 | 1011.2 |
| 20260507103040 | 12 | 213 | 3.2 | 9.7 | 0.00 | 0.00 | 0.00 | 78 | 1011.3 |
| 20260507101544 | 12 | 213 | 4.8 | 11.3 | 0.00 | 0.00 | 0.00 | 78 | 1011.4 |